sensor_id;sensor_type;location;lat;lon;timestamp;P1;durP1;ratioP1;P2;durP2;ratioP2
70457;SDS011;57919;56.194;95.716;2023-08-30T00:01:40;12.60;;;7.17;;
70457;SDS011;57919;56.194;95.716;2023-08-30T00:11:42;10.77;;;6.43;;
70457;SDS011;57919;56.194;95.716;2023-08-30T00:21:44;13.17;;;7.27;;
70457;SDS011;57919;56.194;95.716;2023-08-30T00:31:46;10.57;;;5.55;;
70457;SDS011;57919;56.194;95.716;2023-08-30T00:41:48;10.93;;;5.30;;
70457;SDS011;57919;56.194;95.716;2023-08-30T00:51:50;12.03;;;5.00;;
70457;SDS011;57919;56.194;95.716;2023-08-30T01:01:54;10.80;;;5.40;;
70457;SDS011;57919;56.194;95.716;2023-08-30T01:12:00;17.30;;;5.73;;
70457;SDS011;57919;56.194;95.716;2023-08-30T01:22:12;19.50;;;5.32;;
70457;SDS011;57919;56.194;95.716;2023-08-30T01:32:20;11.07;;;4.30;;
70457;SDS011;57919;56.194;95.716;2023-08-30T01:42:26;32.77;;;4.53;;
70457;SDS011;57919;56.194;95.716;2023-08-30T01:52:29;11.07;;;3.90;;
70457;SDS011;57919;56.194;95.716;2023-08-30T02:02:33;15.70;;;3.40;;
70457;SDS011;57919;56.194;95.716;2023-08-30T02:12:37;8.18;;;3.42;;
70457;SDS011;57919;56.194;95.716;2023-08-30T02:22:44;10.53;;;3.37;;
70457;SDS011;57919;56.194;95.716;2023-08-30T02:32:46;19.00;;;3.63;;
70457;SDS011;57919;56.194;95.716;2023-08-30T02:42:51;9.90;;;3.20;;
70457;SDS011;57919;56.194;95.716;2023-08-30T02:52:55;8.53;;;2.67;;
70457;SDS011;57919;56.194;95.716;2023-08-30T03:02:57;12.50;;;3.10;;
70457;SDS011;57919;56.194;95.716;2023-08-30T03:12:59;11.60;;;2.80;;
70457;SDS011;57919;56.194;95.716;2023-08-30T03:23:01;15.40;;;3.57;;
70457;SDS011;57919;56.194;95.716;2023-08-30T03:33:03;9.15;;;2.60;;
70457;SDS011;57919;56.194;95.716;2023-08-30T03:43:05;10.10;;;3.37;;
70457;SDS011;57919;56.194;95.716;2023-08-30T03:53:07;13.93;;;3.53;;
70457;SDS011;57919;56.194;95.716;2023-08-30T04:03:09;8.20;;;3.17;;
70457;SDS011;57919;56.194;95.716;2023-08-30T04:13:11;11.10;;;3.03;;
70457;SDS011;57919;56.194;95.716;2023-08-30T04:23:13;12.23;;;3.55;;
70457;SDS011;57919;56.194;95.716;2023-08-30T04:33:15;27.10;;;4.33;;
70457;SDS011;57919;56.194;95.716;2023-08-30T04:43:18;9.73;;;3.33;;
70457;SDS011;57919;56.194;95.716;2023-08-30T04:53:19;14.10;;;3.40;;
70457;SDS011;57919;56.194;95.716;2023-08-30T05:03:21;13.10;;;3.67;;
70457;SDS011;57919;56.194;95.716;2023-08-30T05:13:24;10.07;;;3.10;;
70457;SDS011;57919;56.194;95.716;2023-08-30T05:23:27;13.43;;;3.10;;
70457;SDS011;57919;56.194;95.716;2023-08-30T05:33:29;10.60;;;3.07;;
70457;SDS011;57919;56.194;95.716;2023-08-30T05:43:51;7.73;;;2.67;;
70457;SDS011;57919;56.194;95.716;2023-08-30T05:53:55;7.00;;;2.27;;
70457;SDS011;57919;56.194;95.716;2023-08-30T06:03:57;11.98;;;2.80;;
70457;SDS011;57919;56.194;95.716;2023-08-30T06:13:59;6.47;;;2.53;;
70457;SDS011;57919;56.194;95.716;2023-08-30T06:24:01;7.00;;;2.80;;
70457;SDS011;57919;56.194;95.716;2023-08-30T06:34:04;6.97;;;2.57;;
70457;SDS011;57919;56.194;95.716;2023-08-30T06:44:07;9.90;;;2.17;;
70457;SDS011;57919;56.194;95.716;2023-08-30T06:54:09;7.50;;;2.30;;
70457;SDS011;57919;56.194;95.716;2023-08-30T07:04:10;8.07;;;3.00;;
70457;SDS011;57919;56.194;95.716;2023-08-30T07:14:12;5.20;;;2.43;;
70457;SDS011;57919;56.194;95.716;2023-08-30T07:24:15;7.77;;;2.10;;
70457;SDS011;57919;56.194;95.716;2023-08-30T07:34:17;8.57;;;2.47;;
70457;SDS011;57919;56.194;95.716;2023-08-30T07:44:19;6.47;;;2.10;;
70457;SDS011;57919;56.194;95.716;2023-08-30T07:54:21;9.93;;;2.17;;
70457;SDS011;57919;56.194;95.716;2023-08-30T08:04:23;9.47;;;2.10;;
70457;SDS011;57919;56.194;95.716;2023-08-30T08:14:25;7.53;;;1.90;;
70457;SDS011;57919;56.194;95.716;2023-08-30T08:24:27;5.77;;;1.73;;
70457;SDS011;57919;56.194;95.716;2023-08-30T08:34:29;19.33;;;2.72;;
70457;SDS011;57919;56.194;95.716;2023-08-30T08:44:32;9.87;;;2.47;;
70457;SDS011;57919;56.194;95.716;2023-08-30T08:54:34;8.77;;;2.30;;
70457;SDS011;57919;56.194;95.716;2023-08-30T09:04:37;4.93;;;1.87;;
70457;SDS011;57919;56.194;95.716;2023-08-30T09:14:41;8.27;;;2.20;;
70457;SDS011;57919;56.194;95.716;2023-08-30T09:24:54;11.27;;;3.75;;
70457;SDS011;57919;56.194;95.716;2023-08-30T09:34:56;6.60;;;1.90;;
70457;SDS011;57919;56.194;95.716;2023-08-30T09:44:58;9.43;;;2.00;;
70457;SDS011;57919;56.194;95.716;2023-08-30T09:54:59;10.33;;;2.40;;
70457;SDS011;57919;56.194;95.716;2023-08-30T10:05:04;17.37;;;2.87;;
70457;SDS011;57919;56.194;95.716;2023-08-30T10:15:07;12.10;;;3.30;;
70457;SDS011;57919;56.194;95.716;2023-08-30T10:25:10;14.97;;;3.97;;
70457;SDS011;57919;56.194;95.716;2023-08-30T10:35:18;7.47;;;2.83;;
70457;SDS011;57919;56.194;95.716;2023-08-30T10:45:23;21.93;;;3.50;;
70457;SDS011;57919;56.194;95.716;2023-08-30T10:55:25;11.90;;;3.57;;
70457;SDS011;57919;56.194;95.716;2023-08-30T11:05:29;17.33;;;3.92;;
70457;SDS011;57919;56.194;95.716;2023-08-30T11:15:31;26.27;;;5.00;;
70457;SDS011;57919;56.194;95.716;2023-08-30T11:25:33;23.07;;;7.00;;
70457;SDS011;57919;56.194;95.716;2023-08-30T11:35:35;13.03;;;5.80;;
70457;SDS011;57919;56.194;95.716;2023-08-30T11:45:37;24.20;;;7.23;;
70457;SDS011;57919;56.194;95.716;2023-08-30T11:55:39;51.15;;;21.88;;
70457;SDS011;57919;56.194;95.716;2023-08-30T12:05:45;39.90;;;8.60;;
70457;SDS011;57919;56.194;95.716;2023-08-30T12:15:48;17.70;;;4.80;;
70457;SDS011;57919;56.194;95.716;2023-08-30T12:36:08;37.00;;;8.97;;
70457;SDS011;57919;56.194;95.716;2023-08-30T12:46:10;33.33;;;6.90;;
70457;SDS011;57919;56.194;95.716;2023-08-30T12:56:11;18.07;;;5.70;;
70457;SDS011;57919;56.194;95.716;2023-08-30T13:06:13;19.43;;;6.67;;
70457;SDS011;57919;56.194;95.716;2023-08-30T13:16:15;24.70;;;9.20;;
70457;SDS011;57919;56.194;95.716;2023-08-30T13:26:17;19.30;;;9.00;;
70457;SDS011;57919;56.194;95.716;2023-08-30T13:36:19;23.65;;;7.97;;
70457;SDS011;57919;56.194;95.716;2023-08-30T13:46:22;32.27;;;7.97;;
70457;SDS011;57919;56.194;95.716;2023-08-30T13:56:23;14.90;;;6.07;;
70457;SDS011;57919;56.194;95.716;2023-08-30T14:06:25;18.77;;;5.63;;
70457;SDS011;57919;56.194;95.716;2023-08-30T14:16:27;11.60;;;4.77;;
70457;SDS011;57919;56.194;95.716;2023-08-30T14:26:29;16.73;;;4.53;;
70457;SDS011;57919;56.194;95.716;2023-08-30T14:36:31;13.57;;;5.23;;
70457;SDS011;57919;56.194;95.716;2023-08-30T14:46:33;12.63;;;5.00;;
70457;SDS011;57919;56.194;95.716;2023-08-30T14:56:35;10.53;;;4.87;;
70457;SDS011;57919;56.194;95.716;2023-08-30T15:06:37;11.40;;;4.33;;
70457;SDS011;57919;56.194;95.716;2023-08-30T15:16:41;9.80;;;4.20;;
70457;SDS011;57919;56.194;95.716;2023-08-30T15:26:43;7.63;;;3.70;;
70457;SDS011;57919;56.194;95.716;2023-08-30T15:36:45;12.60;;;5.20;;
70457;SDS011;57919;56.194;95.716;2023-08-30T15:46:48;19.57;;;5.30;;
70457;SDS011;57919;56.194;95.716;2023-08-30T15:56:49;10.30;;;4.13;;
70457;SDS011;57919;56.194;95.716;2023-08-30T16:06:51;13.73;;;5.22;;
70457;SDS011;57919;56.194;95.716;2023-08-30T16:16:53;10.67;;;4.53;;
70457;SDS011;57919;56.194;95.716;2023-08-30T16:26:55;10.30;;;4.60;;
70457;SDS011;57919;56.194;95.716;2023-08-30T16:36:57;14.30;;;5.27;;
70457;SDS011;57919;56.194;95.716;2023-08-30T16:46:59;9.67;;;4.00;;
70457;SDS011;57919;56.194;95.716;2023-08-30T16:57:01;13.32;;;4.55;;
70457;SDS011;57919;56.194;95.716;2023-08-30T17:07:03;9.50;;;4.07;;
70457;SDS011;57919;56.194;95.716;2023-08-30T17:17:07;9.53;;;4.70;;
70457;SDS011;57919;56.194;95.716;2023-08-30T17:27:09;13.87;;;6.00;;
70457;SDS011;57919;56.194;95.716;2023-08-30T17:37:11;10.43;;;5.80;;
70457;SDS011;57919;56.194;95.716;2023-08-30T17:47:13;12.77;;;4.40;;
70457;SDS011;57919;56.194;95.716;2023-08-30T17:57:15;17.97;;;4.13;;
70457;SDS011;57919;56.194;95.716;2023-08-30T18:07:17;13.83;;;4.63;;
70457;SDS011;57919;56.194;95.716;2023-08-30T18:17:19;17.63;;;5.40;;
70457;SDS011;57919;56.194;95.716;2023-08-30T18:27:21;16.30;;;5.40;;
70457;SDS011;57919;56.194;95.716;2023-08-30T18:37:23;14.43;;;5.20;;
70457;SDS011;57919;56.194;95.716;2023-08-30T18:47:25;7.30;;;3.80;;
70457;SDS011;57919;56.194;95.716;2023-08-30T18:57:27;9.83;;;3.93;;
70457;SDS011;57919;56.194;95.716;2023-08-30T19:07:29;8.93;;;3.83;;
70457;SDS011;57919;56.194;95.716;2023-08-30T19:17:31;9.33;;;4.90;;
70457;SDS011;57919;56.194;95.716;2023-08-30T19:27:33;11.95;;;5.07;;
70457;SDS011;57919;56.194;95.716;2023-08-30T19:37:35;14.90;;;6.87;;
70457;SDS011;57919;56.194;95.716;2023-08-30T19:47:37;21.17;;;8.00;;
70457;SDS011;57919;56.194;95.716;2023-08-30T19:57:39;12.10;;;4.17;;
70457;SDS011;57919;56.194;95.716;2023-08-30T20:07:44;7.13;;;4.00;;
70457;SDS011;57919;56.194;95.716;2023-08-30T20:17:46;7.95;;;3.80;;
70457;SDS011;57919;56.194;95.716;2023-08-30T20:27:48;8.63;;;4.33;;
70457;SDS011;57919;56.194;95.716;2023-08-30T20:37:50;10.37;;;4.20;;
70457;SDS011;57919;56.194;95.716;2023-08-30T20:47:53;11.37;;;5.40;;
70457;SDS011;57919;56.194;95.716;2023-08-30T20:57:54;10.43;;;4.90;;
70457;SDS011;57919;56.194;95.716;2023-08-30T21:07:56;11.25;;;5.95;;
70457;SDS011;57919;56.194;95.716;2023-08-30T21:17:58;11.17;;;5.00;;
70457;SDS011;57919;56.194;95.716;2023-08-30T21:28:00;32.90;;;5.27;;
70457;SDS011;57919;56.194;95.716;2023-08-30T21:38:02;13.40;;;5.27;;
70457;SDS011;57919;56.194;95.716;2023-08-30T21:48:04;12.33;;;4.93;;
70457;SDS011;57919;56.194;95.716;2023-08-30T21:58:07;10.10;;;4.55;;
70457;SDS011;57919;56.194;95.716;2023-08-30T22:08:08;17.23;;;4.80;;
70457;SDS011;57919;56.194;95.716;2023-08-30T22:18:10;14.37;;;4.50;;
70457;SDS011;57919;56.194;95.716;2023-08-30T22:28:12;12.37;;;4.90;;
70457;SDS011;57919;56.194;95.716;2023-08-30T22:38:14;10.23;;;5.20;;
70457;SDS011;57919;56.194;95.716;2023-08-30T22:48:16;10.57;;;4.43;;
70457;SDS011;57919;56.194;95.716;2023-08-30T22:58:18;10.20;;;3.70;;
70457;SDS011;57919;56.194;95.716;2023-08-30T23:08:20;7.93;;;3.90;;
70457;SDS011;57919;56.194;95.716;2023-08-30T23:18:22;7.83;;;3.57;;
70457;SDS011;57919;56.194;95.716;2023-08-30T23:28:24;6.63;;;4.13;;
70457;SDS011;57919;56.194;95.716;2023-08-30T23:38:26;11.93;;;4.57;;
70457;SDS011;57919;56.194;95.716;2023-08-30T23:48:29;13.83;;;3.60;;
70457;SDS011;57919;56.194;95.716;2023-08-30T23:58:31;15.33;;;5.33;;
